Tiempo atmosférico en la estación meteorológica de Ocaña, Toledo (733 m.)



Fecha
DESCASC
Temp. máxima en grados centígrados (hora)
DESCASC
Temp. mínima en grados centígrados (hora)
DESCASC
Temp. media en grados centígrados
DESCASC
Racha de viento máxima en m/sg (hora)
DESCASC
Velocidad máxima media en intervalos de 10 minutos(hora)
DESCASC
Precipitaciones diarias en mm
DESCASC
Precipitaciones de 00:00 a 06:00 en mm
DESCASC
Precipitaciones de 06:00 a 12:00 en mm
DESCASC
Precipitaciones de 12:00 a 18:00 en mm
DESCASC
Precipitaciones de 18:00 a 24:00 en mm
DESCASC
16-06-2019 29.6 (15:50) 8.9 (06:30) 19.3 10.28 (11:00) 4.72 (16:30) 0 0 0 0 0
15-06-2019 25.1 (19:20) 9.5 (07:00) 17.3 8.89 (03:00) 4.44 (03:00) 0 0 0 0 0
14-06-2019 24.8 (16:40) 13.2 (07:40) 19 13.61 (16:50) 6.67 (14:40) 0 0 0 0 0
13-06-2019 28.8 (17:50) 12.5 (00:00) 20.6 11.11 (15:40) 6.11 (04:00) 0 0 0 0 0
12-06-2019 26 (19:10) 6.9 (00:00) 16.5 9.17 (17:40) 5.56 (09:20) 0 0 0 0 0
11-06-2019 20.4 (18:20) 11.8 (00:00) 16.1 9.72 (13:10) 5.83 (13:20) 0 0 0 0 0
10-06-2019 25.9 (18:50) 10.6 (00:00) 18.3 9.72 (17:40) 4.44 (16:10) 0 0 0 0 0
09-06-2019 26.9 (17:20) 11.7 (00:00) 19.3 12.5 (17:20) 5.83 (17:20) 0 0 0 0 0
08-06-2019 29.6 (16:20) 7.8 (00:00) 18.7 12.22 (18:50) 7.5 (18:50) 0 0 0 0 0
07-06-2019 22 (18:20) 9.7 (00:00) 15.8 10.83 (03:10) 6.94 (02:50) 0 0 0 0 0
06-06-2019 24.8 (16:30) 8 (00:00) 16.4 13.89 (17:10) 8.33 (17:00) 0 0 0 0 0
05-06-2019 21.7 (18:00) 10.7 (00:00) 16.2 12.22 (17:20) 6.67 (09:00) 0 0 0 0 0
04-06-2019 28.9 (16:30) 15.3 (00:00) 22.1 16.39 (13:00) 8.06 (16:30) 0 0 0 0 0
03-06-2019 33 (15:20) 16.3 (00:00) 24.6 12.5 (16:10) 6.67 (15:30) 0 0 0 0 0
02-06-2019 33.9 (16:50) 14.4 (00:00) 24.2 9.72 (13:40) 5 (02:50) 0 0 0 0 0
01-06-2019 32.3 (17:30) 14.2 (00:00) 23.2 8.89 (03:50) 6.11 (03:40) 0 0 0 0 0
31-05-2019 31 (18:00) 11.7 (00:00) 21.3 7.5 (14:00) 4.17 (11:00) 0 0 0 0 0
30-05-2019 29.2 (18:50) 10.1 (00:00) 19.7 8.61 (02:30) 6.11 (02:50) 0 0 0 0 0
29-05-2019 25.9 (19:00) 9.3 (00:00) 17.6 13.06 (09:30) 8.61 (09:30) 0 0 0 0 0
28-05-2019 26.2 (16:50) 12.1 (00:00) 19.2 11.67 (23:20) 7.78 (20:10) 0 0 0 0 0
27-05-2019 28.7 (15:50) 10.5 (00:00) 19.6 10.83 (15:00) 5.83 (23:40) 0 0 0 0 0
26-05-2019 26 (18:20) 9.7 (00:00) 17.8 10.28 (08:50) 7.5 (09:00) 0 0 0 0 0
25-05-2019 24.1 (17:30) 10 (00:00) 17.1 13.33 (10:30) 9.44 (10:30) 0 0 0 0 0
24-05-2019 24.2 (14:30) 14.7 (00:00) 19.5 11.39 (15:20) 7.22 (15:10) 0 0 0 0 0
23-05-2019 28.3 (18:10) 12 (00:00) 20.1 9.17 (20:30) 5 (20:30) 0 0 0 0 0
22-05-2019 27.6 (18:00) 8.7 (00:00) 18.2 9.72 (14:10) 4.44 (00:30) 0 0 0 0 0
21-05-2019 25.2 (17:40) 11 (07:00) 18.1 6.94 (18:20) 3.61 (22:00) 0 0 0 0 0

Gráficas

Temp. máximas Temp. mínimas Temp. medias Precipitaciones Rachas de viento máximas Velocidades máximas media en intervalos de 10 minutos

Datos horarios

Fecha y hora oficial Temperatura (ºC) Velocidad del viento (km/h) Dirección del viento Racha (km/h) Dirección de racha Precipitación (mm) Presión (hPa) Tendencia (hPa) Humedad (%)
2019-06-19 23:00:00 20.6 8 Noroeste 21 Noroeste 0 -- -- 48
2019-06-19 22:00:00 22 12 Oeste 28 Oeste 0 -- -- 45
2019-06-19 21:00:00 23.5 13 Oeste 34 Noroeste 0 -- -- 42
2019-06-19 20:00:00 25.5 15 Noroeste 31 Oeste 0 -- -- 39
2019-06-19 19:00:00 26.9 16 Oeste 32 Oeste 0 -- -- 37
2019-06-19 18:00:00 27 12 Noroeste 34 Oeste 0 -- -- 38
2019-06-19 17:00:00 27.3 16 Oeste 35 Oeste 0 -- -- 35
2019-06-19 16:00:00 27 18 Sudoeste 37 Oeste 0 -- -- 35
2019-06-19 15:00:00 26.6 13 Sudoeste -- -- -- -- -- 37
2019-06-19 14:00:00 -- -- -- -- -- -- -- -- --
2019-06-19 13:00:00 -- -- -- -- -- -- -- -- --
2019-06-19 12:00:00 -- -- -- -- -- -- -- -- --
2019-06-19 11:00:00 -- -- -- -- -- -- -- -- --
2019-06-19 10:00:00 -- -- -- -- -- -- -- -- --
2019-06-19 09:00:00 -- -- -- -- -- -- -- -- --
2019-06-19 08:00:00 -- -- -- -- -- -- -- -- --
2019-06-19 07:00:00 -- -- -- -- -- -- -- -- --
2019-06-19 06:00:00 -- -- -- -- -- -- -- -- --
2019-06-19 05:00:00 -- -- -- -- -- -- -- -- --
2019-06-19 04:00:00 -- -- -- -- -- -- -- -- --
2019-06-19 03:00:00 -- -- -- -- -- -- -- -- --
2019-06-19 02:00:00 -- -- -- -- -- -- -- -- --
2019-06-19 01:00:00 -- -- -- -- -- -- -- -- --
2019-06-19 00:00:00 -- -- -- -- -- -- -- -- --
2019-06-18 23:00:00 -- -- -- -- -- -- -- -- --
2019-06-18 22:00:00 -- -- -- -- -- -- -- -- --
2019-06-18 21:00:00 -- -- -- -- -- -- -- -- --
2019-06-18 20:00:00 -- -- -- -- -- -- -- -- --
2019-06-18 19:00:00 29.8 18 Oeste 42 Sudoeste 0 -- -- 17
2019-06-18 18:00:00 30.2 21 Sudoeste 45 Sudoeste 0 -- -- 18
2019-06-18 17:00:00 29.8 27 Sudoeste 48 Sur 0 -- -- 20
2019-06-18 16:00:00 29.7 26 Sudoeste 46 Sudoeste 0 -- -- 21
2019-06-18 15:00:00 29 28 Sudoeste 44 Sudoeste 0 -- -- 22
2019-06-18 14:00:00 28.2 22 Sudoeste 45 Sudoeste 0 -- -- 24
2019-06-18 13:00:00 27.3 21 Sudoeste 42 Sudoeste 0 -- -- 28
2019-06-18 12:00:00 26 19 Sudoeste 33 Oeste 0 -- -- 25
2019-06-18 11:00:00 25 21 Sudoeste 40 Sudoeste 0 -- -- 26
2019-06-18 10:00:00 23.9 18 Sudoeste 34 Sudoeste 0 -- -- 21
2019-06-18 09:00:00 22.2 11 Sur 18 Sudoeste 0 -- -- 26
2019-06-18 08:00:00 18.6 10 Sudoeste 16 Sudoeste 0 -- -- 30
2019-06-18 07:00:00 16.3 9 Sudoeste 17 Sudoeste 0 -- -- 31
2019-06-18 06:00:00 17.2 9 Sudoeste 13 Sudoeste 0 -- -- 28
2019-06-18 05:00:00 17.8 9 Sudoeste 13 Sudoeste 0 -- -- 28
2019-06-18 04:00:00 19 9 Sur 12 Sur 0 -- -- 28
2019-06-18 03:00:00 19.9 4 Sudoeste 13 Oeste 0 -- -- 27
2019-06-18 02:00:00 20.8 5 Sudoeste 9 Sudoeste 0 -- -- 26
2019-06-18 01:00:00 22 4 Sudoeste 8 Sudoeste 0 -- -- 25
2019-06-18 00:00:00 23 2 Oeste 13 Noroeste 0 -- -- 25
2019-06-17 23:00:00 25.3 8 Oeste 15 Oeste 0 -- -- 23
2019-06-17 22:00:00 26.9 6 Oeste 14 Sudoeste 0 -- -- 21
2019-06-17 21:00:00 28.5 14 Sudoeste 27 Sudoeste 0 -- -- 20
2019-06-17 20:00:00 30.9 14 Sur 35 Sur 0 -- -- 18
2019-06-17 19:00:00 31.3 20 Sudoeste 35 Sudoeste 0 -- -- 17
2019-06-17 18:00:00 31.4 10 Sudoeste 38 Sudoeste 0 -- -- 16
2019-06-17 17:00:00 31.4 13 Sudoeste 36 Sur 0 -- -- 17
2019-06-17 16:00:00 30.8 20 Sudoeste 34 Sur 0 -- -- 19
2019-06-17 15:00:00 29.7 10 Sur 30 Sur 0 -- -- 19
2019-06-17 14:00:00 28.7 14 Sudoeste 27 Sudoeste 0 -- -- 21
2019-06-17 13:00:00 28 7 Sur 20 Sudoeste 0 -- -- 23
2019-06-17 12:00:00 26.2 5 Oeste 14 Noroeste 0 -- -- 27
2019-06-17 11:00:00 24 8 Oeste 15 Oeste 0 -- -- 31
2019-06-17 10:00:00 22.2 8 Noroeste 14 Noroeste 0 -- -- 34
2019-06-17 09:00:00 18.2 0 Calma 7 Sudeste 0 -- -- 43
2019-06-17 08:00:00 13.6 3 Sudeste 9 Sudeste 0 -- -- 58
2019-06-17 07:00:00 12.1 5 Sudeste 12 Sudeste 0 -- -- 64
2019-06-17 06:00:00 12.2 8 Este 13 Este 0 -- -- 66
2019-06-17 05:00:00 13.8 6 Sudeste 13 Sudeste 0 -- -- 64
2019-06-17 04:00:00 15.3 8 Sudeste 13 Sudeste 0 -- -- 62
2019-06-17 03:00:00 15.5 8 Este 13 Sudeste 0 -- -- 56
2019-06-17 02:00:00 17.5 6 Este 13 Sudeste 0 -- -- 49
2019-06-17 01:00:00 19 6 Sudeste 15 Sudeste 0 -- -- 40
2019-06-17 00:00:00 19 9 Sur 20 Sudeste 0 -- -- 34
2019-06-16 23:00:00 20.5 11 Sudeste 18 Este 0 -- -- 28
2019-06-16 22:00:00 22.5 3 Sur 8 Sudoeste 0 -- -- 23
2019-06-16 21:00:00 25.4 7 Sudoeste 20 Sudoeste 0 -- -- 19
2019-06-16 20:00:00 28.2 4 Sudeste 16 Sudeste 0 -- -- 19
2019-06-16 19:00:00 28.2 9 Sur 27 Sudoeste 0 -- -- 20
2019-06-16 18:00:00 28.4 8 Sur 31 Sudeste 0 -- -- 21
2019-06-16 17:00:00 28.6 16 Sudoeste 28 Sudoeste 0 -- -- 20
2019-06-16 16:00:00 29.4 13 Sur 30 Sudoeste 0 -- -- 20
2019-06-16 15:00:00 28 8 Sudoeste 22 Sudoeste 0 -- -- 21
2019-06-16 14:00:00 26.7 10 Sudoeste 23 Sudoeste 0 -- -- 25
2019-06-16 13:00:00 26.7 12 Sur 22 Sudoeste 0 -- -- 30
2019-06-16 12:00:00 24.9 11 Sur 25 Sudeste 0 -- -- 34
2019-06-16 11:00:00 22.9 13 Sudeste 37 Sudeste 0 -- -- 36
2019-06-16 10:00:00 20.8 14 Sudeste 23 Sudeste 0 -- -- 36
2019-06-16 09:00:00 17.6 11 Sudeste 21 Sudeste 0 -- -- 37
2019-06-16 08:00:00 13.3 9 Este 15 Este 0 -- -- 38
2019-06-16 07:00:00 10.5 9 Este 19 Este 0 -- -- 40
2019-06-16 06:00:00 10 6 Este 8 Nordeste 0 -- -- 39
2019-06-16 05:00:00 12.4 6 Sudeste 10 Sudeste 0 -- -- 37
2019-06-16 04:00:00 12.4 3 Sur 5 Sudeste 0 -- -- 35
2019-06-16 03:00:00 12.7 3 Este 8 Este 0 -- -- 36
2019-06-16 02:00:00 13.6 4 Este 6 Este 0 -- -- 35
2019-06-16 01:00:00 14.5 4 Este 8 Sudeste 0 -- -- 32
2019-06-16 00:00:00 14.9 5 Este 10 Sudeste 0 -- -- 31
2019-06-15 23:00:00 17 4 Este 6 Este 0 -- -- 29
2019-06-15 22:00:00 20.3 4 Noroeste 15 Noroeste 0 -- -- 27
2019-06-15 21:00:00 22.7 4 Noroeste 15 Noroeste 0 -- -- 25
2019-06-15 20:00:00 24.3 6 Noroeste 18 Noroeste 0 -- -- 24
2019-06-15 19:00:00 25 7 Oeste 20 Noroeste 0 -- -- 21
2019-06-15 18:00:00 24.7 8 Noroeste 26 Sudoeste 0 -- -- 23
2019-06-15 17:00:00 24.4 8 Noroeste 28 Oeste 0 -- -- 22
2019-06-15 16:00:00 24 8 Oeste 27 Oeste 0 -- -- 25
2019-06-15 15:00:00 22.7 8 Sudoeste 24 Sudoeste 0 -- -- 29
2019-06-15 14:00:00 20.9 8 Sudoeste 23 Oeste 0 -- -- 34
2019-06-15 13:00:00 20 7 Noroeste 18 Noroeste 0 -- -- 36
2019-06-15 12:00:00 18.8 8 Oeste 20 Oeste 0 -- -- 39
2019-06-15 11:00:00 17.2 7 Noroeste 18 Noroeste 0 -- -- 44
2019-06-15 10:00:00 15.3 7 Oeste 20 Noroeste 0 -- -- 52
2019-06-15 09:00:00 13.8 9 Oeste 20 Oeste 0 -- -- 57
2019-06-15 08:00:00 11 6 Oeste 14 Sudoeste 0 -- -- 69
2019-06-15 07:00:00 9.5 5 Oeste 14 Oeste 0 -- -- 70
2019-06-15 06:00:00 10.1 8 Oeste 15 Oeste 0 -- -- 68
2019-06-15 05:00:00 10.8 5 Noroeste 14 Oeste 0 -- -- 62
2019-06-15 04:00:00 11.8 7 Oeste 27 Oeste 0 -- -- 58
2019-06-15 03:00:00 13.2 16 Oeste 32 Oeste 0 -- -- 53
2019-06-15 02:00:00 13.9 12 Oeste 27 Oeste 0 -- -- 48
2019-06-15 01:00:00 15 14 Oeste 30 Sudoeste 0 -- -- 44
2019-06-15 00:00:00 15.8 11 Oeste 25 Oeste 0 -- -- 43
2019-06-14 23:00:00 16.8 15 Oeste 25 Oeste 0 -- -- 40
2019-06-14 22:00:00 17.6 13 Sudoeste 33 Sudoeste 0 -- -- 32
2019-06-14 21:00:00 19.8 19 Oeste 39 Oeste 0 -- -- 31
2019-06-14 20:00:00 22.3 17 Oeste 34 Oeste 0 -- -- 27
2019-06-14 19:00:00 23.3 19 Oeste 39 Sudoeste 0 -- -- 23
2019-06-14 18:00:00 24.3 16 Oeste 42 Sudoeste 0 -- -- 24
2019-06-14 17:00:00 24.3 21 Oeste 49 Oeste 0 -- -- 24
2019-06-14 16:00:00 24.3 21 Oeste 43 Sudoeste 0 -- -- 26
2019-06-14 15:00:00 24.5 21 Oeste 46 Sur 0 -- -- 25
2019-06-14 14:00:00 24.1 23 Sudoeste 44 Sudoeste 0 -- -- 26
2019-06-14 13:00:00 22.7 23 Sudoeste 41 Oeste 0 -- -- 29
2019-06-14 12:00:00 22 13 Oeste 26 Oeste 0 -- -- 35
2019-06-14 11:00:00 20 10 Oeste 22 Noroeste 0 -- -- 39
2019-06-14 10:00:00 18.4 12 Oeste 28 Noroeste 0 -- -- 41
2019-06-14 09:00:00 16.6 9 Oeste 18 Oeste 0 -- -- 46
2019-06-14 08:00:00 13.4 3 Oeste 15 Noroeste 0 -- -- 50
2019-06-14 07:00:00 14.2 8 Noroeste 17 Noroeste 0 -- -- 47
2019-06-14 06:00:00 15 8 Oeste 16 Oeste 0 -- -- 68
2019-06-14 05:00:00 15.4 4 Sur 10 Sur 0 -- -- 66
2019-06-14 04:00:00 16.2 7 Sur 10 Sur 0 -- -- 64
2019-06-14 03:00:00 17.5 5 Sur 17 Sur 0 -- -- 61
2019-06-14 02:00:00 17.4 7 Sudeste 18 Sur 0 -- -- 58
2019-06-14 01:00:00 17.4 4 Sudeste 8 Sudeste 0 -- -- 42
2019-06-14 00:00:00 18.8 0 Calma 24 Sudeste 0 -- -- 30
2019-06-13 23:00:00 20.2 5 Noroeste 14 Noroeste 0 -- -- 27
2019-06-13 22:00:00 22.2 8 Noroeste 21 Oeste 0 -- -- 25
2019-06-13 21:00:00 25 11 Noroeste 25 Oeste 0 -- -- 23
2019-06-13 20:00:00 26.4 14 Sudoeste 33 Sudoeste 0 -- -- 22
2019-06-13 19:00:00 27.9 10 Sudoeste 32 Sudoeste 0 -- -- 21
2019-06-13 18:00:00 28.1 13 Sudoeste 39 Sudoeste 0 -- -- 22
2019-06-13 17:00:00 28.3 10 Sudoeste 32 Sur 0 -- -- 22
2019-06-13 16:00:00 27.6 17 Sudoeste 40 Sudoeste 0 -- -- 23
2019-06-13 15:00:00 27.4 15 Sur 35 Sudoeste 0 -- -- 25
2019-06-13 14:00:00 25.8 18 Sudoeste 40 Sur 0 -- -- 28
2019-06-13 13:00:00 24.8 17 Sudoeste 37 Sudeste 0 -- -- 31
2019-06-13 12:00:00 23.7 16 Sur 29 Sudeste 0 -- -- 35
2019-06-13 11:00:00 21.7 15 Sur 28 Sur 0 -- -- 43
2019-06-13 10:00:00 19 18 Sur 32 Sudeste 0 -- -- 55
2019-06-13 09:00:00 16.4 21 Sur 32 Sudeste 0 -- -- 67
2019-06-13 08:00:00 13.8 13 Sudeste 25 Sudeste 0 -- -- 79
2019-06-13 07:00:00 12.6 14 Sudeste 26 Sudeste 0 -- -- 84
2019-06-13 06:00:00 12.7 15 Sudeste 32 Sudeste 0 -- -- 84
2019-06-13 05:00:00 12.8 18 Sudeste 34 Sudeste 0 -- -- 82
2019-06-13 04:00:00 13.3 22 Sudeste 36 Sudeste 0 -- -- 75
2019-06-13 03:00:00 14.4 21 Sudeste 33 Sudeste 0 -- -- 65
2019-06-13 02:00:00 15.8 15 Sudeste 27 Sudeste 0 -- -- 62
2019-06-13 01:00:00 15.5 10 Sudeste 25 Este 0 -- -- 44
2019-06-13 00:00:00 15.7 3 Norte 8 Oeste 0 -- -- 26
2019-06-12 23:00:00 17.6 4 Oeste 9 Oeste 0 -- -- 25
2019-06-12 22:00:00 20.1 3 Oeste 8 Norte 0 -- -- 23
2019-06-12 21:00:00 23.2 3 Noroeste 19 Noroeste 0 -- -- 21
2019-06-12 20:00:00 24.9 13 Oeste 26 Sudoeste 0 -- -- 18
2019-06-12 19:00:00 25.8 8 Sudoeste 25 Sur 0 -- -- 20
2019-06-12 18:00:00 25.5 8 Oeste 33 Sudoeste 0 -- -- 20
2019-06-12 17:00:00 24.7 9 Sudoeste 22 Sur 0 -- -- 21
2019-06-12 16:00:00 23.8 10 Sudoeste 25 Oeste 0 -- -- 21
2019-06-12 15:00:00 23.7 13 Sur 28 Sudoeste 0 -- -- 21
2019-06-12 14:00:00 22.3 4 Noroeste 28 Sur 0 -- -- 23
2019-06-12 13:00:00 21 8 Sudoeste 23 Sudoeste 0 -- -- 25
2019-06-12 12:00:00 20.3 11 Sudeste 25 Sudeste 0 -- -- 27
2019-06-12 11:00:00 18.9 12 Sudeste 24 Sur 0 -- -- 33
2019-06-12 10:00:00 16.1 16 Sudeste 32 Sudeste 0 -- -- 46
2019-06-12 09:00:00 12.8 16 Sudeste 24 Sudeste 0 -- -- 57
2019-06-12 08:00:00 8.2 9 Este 19 Sudeste 0 -- -- 64
2019-06-12 07:00:00 6.9 10 Sudeste 15 Este 0 -- -- 70
2019-06-12 06:00:00 8 9 Sudeste 17 Sudeste 0 -- -- 64
2019-06-12 05:00:00 8.2 9 Sudeste 15 Sudeste 0 -- -- 60
2019-06-12 04:00:00 8 10 Sudeste 17 Este 0 -- -- 50
2019-06-12 03:00:00 9.6 12 Sudeste 20 Este 0 -- -- 43
2019-06-12 02:00:00 8.6 12 Este 14 Este 0 -- -- 41
2019-06-12 01:00:00 10.7 11 Nordeste 16 Nordeste 0 -- -- 36
2019-06-12 00:00:00 11.8 10 Nordeste 17 Nordeste 0 -- -- 33
2019-06-11 23:00:00 14.2 11 Nordeste 24 Norte 0 -- -- 29
2019-06-11 22:00:00 16 15 Norte 25 Norte 0 -- -- 28
2019-06-11 21:00:00 17.8 15 Norte 26 Norte 0 -- -- 25
2019-06-11 20:00:00 19.5 13 Norte 33 Norte 0 -- -- 24
2019-06-11 19:00:00 19.5 10 Nordeste 29 Norte 0 -- -- 27
2019-06-11 18:00:00 19.1 16 Norte 32 Norte 0 -- -- 30
2019-06-11 17:00:00 19.8 17 Norte 34 Norte 0 -- -- 33
2019-06-11 16:00:00 19.3 17 Norte 32 Norte 0 -- -- 37
2019-06-11 15:00:00 17.6 20 Norte 34 Norte 0 -- -- 41
2019-06-11 14:00:00 18.2 15 Norte 35 Norte 0 -- -- 42
2019-06-11 13:00:00 18.6 18 Norte 30 Norte 0 -- -- 41
2019-06-11 12:00:00 18.2 17 Norte 32 Norte 0 -- -- 42
2019-06-11 11:00:00 18.9 14 Norte 30 Norte 0 -- -- 42
2019-06-11 10:00:00 16.7 14 Norte 24 Nordeste 0 -- -- 47
2019-06-11 09:00:00 16.3 10 Norte 18 Norte 0 -- -- 45
2019-06-11 08:00:00 15.1 7 Noroeste 14 Norte 0 -- -- 48
2019-06-11 07:00:00 14.2 6 Noroeste 14 Noroeste 0 -- -- 47
2019-06-11 06:00:00 12.3 3 Noroeste 6 Noroeste 0 -- -- 44
2019-06-11 05:00:00 13.3 3 Noroeste 10 Noroeste 0 -- -- 39
2019-06-11 04:00:00 15 6 Noroeste 16 Norte 0 -- -- 36
2019-06-11 03:00:00 14.4 7 Norte 12 Norte 0 -- -- 37
2019-06-11 02:00:00 16 6 Noroeste 11 Noroeste 0 -- -- 35
2019-06-11 01:00:00 17.1 4 Oeste 11 Oeste 0 -- -- 36
2019-06-11 00:00:00 19 6 Noroeste 22 Norte 0 -- -- 32
2019-06-10 23:00:00 19.6 9 Oeste 15 Oeste 0 -- -- 34
2019-06-10 22:00:00 21.3 7 Oeste 18 Oeste 0 -- -- 32
2019-06-10 21:00:00 23.5 10 Oeste 28 Oeste 0 -- -- 27
2019-06-10 20:00:00 24.9 12 Oeste 26 Noroeste 0 -- -- 22
2019-06-10 19:00:00 25.8 14 Noroeste 63 Noroeste 0 -- -- 24
2019-06-10 18:00:00 25.8 14 Oeste 35 Norte 0 -- -- 25
2019-06-10 17:00:00 25 15 Oeste 33 Noroeste 0 -- -- 24
2019-06-10 16:00:00 25.1 10 Oeste 34 Oeste 0 -- -- 26
2019-06-10 15:00:00 24.1 13 Oeste 27 Oeste 0 -- -- 28
2019-06-10 14:00:00 23.5 8 Noroeste 24 Sudoeste 0 -- -- 30
2019-06-10 13:00:00 22.8 12 Noroeste 26 Noroeste 0 -- -- 31
2019-06-10 12:00:00 21.7 6 Oeste 21 Oeste 0 -- -- 35
2019-06-10 11:00:00 20.5 5 Oeste 13 Norte 0 -- -- 41
2019-06-10 10:00:00 19.1 5 Nordeste 10 Norte 0 -- -- 45
2019-06-10 09:00:00 16.1 4 Noroeste 10 Noroeste 0 -- -- 50
2019-06-10 08:00:00 13 4 Oeste 10 Oeste 0 -- -- 58
2019-06-10 07:00:00 11.2 4 Noroeste 10 Noroeste 0 -- -- 60
2019-06-10 06:00:00 10.6 3 Oeste 6 Oeste 0 -- -- 57
2019-06-10 05:00:00 13.1 4 Noroeste 9 Oeste 0 -- -- 51
2019-06-10 04:00:00 13.1 4 Noroeste 14 Noroeste 0 -- -- 51
2019-06-10 03:00:00 14.4 5 Noroeste 13 Oeste 0 -- -- 46
2019-06-10 02:00:00 16 5 Noroeste 18 Noroeste 0 -- -- 41
2019-06-10 01:00:00 17.2 7 Noroeste 21 Oeste 0 -- -- 38
2019-06-10 00:00:00 18.9 12 Oeste 23 Oeste 0 -- -- 33
2019-06-09 23:00:00 19.5 10 Oeste 24 Noroeste 0 -- -- 30
2019-06-09 22:00:00 21 14 Oeste 28 Oeste 0 -- -- 28
2019-06-09 21:00:00 22.9 17 Oeste 34 Oeste 0 -- -- 21
2019-06-09 20:00:00 25.1 15 Oeste 33 Oeste 0 -- -- 20
2019-06-09 19:00:00 26.6 15 Oeste 35 Oeste 0 -- -- 18
2019-06-09 18:00:00 26.8 16 Oeste 45 Oeste 0 -- -- 17
2019-06-09 17:00:00 26.6 15 Oeste 39 Oeste 0 -- -- 23
2019-06-09 16:00:00 26.5 12 Oeste 31 Oeste 0 -- -- 25
2019-06-09 15:00:00 26.1 17 Oeste 32 Noroeste 0 -- -- 24
2019-06-09 14:00:00 25.6 11 Sudoeste 34 Sudoeste 0 -- -- 25
2019-06-09 13:00:00 24.1 9 Norte 30 Oeste 0 -- -- 28
2019-06-09 12:00:00 23.1 12 Oeste 26 Oeste 0 -- -- 30
2019-06-09 11:00:00 21.7 10 Oeste 22 Noroeste 0 -- -- 32
2019-06-09 10:00:00 19.4 8 Oeste 19 Oeste 0 -- -- 43
2019-06-09 09:00:00 16.8 6 Oeste 15 Oeste 0 -- -- 52
2019-06-09 08:00:00 13.1 2 Sur 8 Sudeste 0 -- -- 69
2019-06-09 07:00:00 11.9 5 Sudeste 9 Sur 0 -- -- 72
2019-06-09 06:00:00 11.7 7 Sur 9 Sur 0 -- -- 72
2019-06-09 05:00:00 12.3 4 Sur 12 Sudeste 0 -- -- 72
2019-06-09 04:00:00 13.7 5 Sudeste 16 Sudeste 0 -- -- 66
2019-06-09 03:00:00 14.8 8 Sudeste 19 Sudeste 0 -- -- 63
2019-06-09 02:00:00 15.4 11 Sudeste 22 Sudeste 0 -- -- 62
2019-06-09 01:00:00 16.5 12 Sudeste 22 Sudeste 0 -- -- 60
2019-06-09 00:00:00 17.7 14 Sudeste 25 Sudeste 0 -- -- 58
2019-06-08 23:00:00 19.5 15 Sudeste 30 Sudeste 0 -- -- 54
2019-06-08 22:00:00 21.6 17 Sudeste 38 Sudeste 0 -- -- 49
2019-06-08 21:00:00 24.8 20 Sudeste 44 Sudeste 0 -- -- 41
2019-06-08 20:00:00 26 26 Sudeste 41 Sudeste 0 -- -- 39
2019-06-08 19:00:00 27.3 22 Sudeste 44 Sudeste 0 -- -- 36
2019-06-08 18:00:00 27.6 23 Sudeste 39 Sudeste 0 -- -- 34
2019-06-08 17:00:00 29.1 20 Sudeste 42 Sur 0 -- -- 31
2019-06-08 16:00:00 28.8 15 Sur 43 Sur 0 -- -- 29
2019-06-08 15:00:00 27.7 22 Sudeste 39 Sudeste 0 -- -- 32
2019-06-08 14:00:00 26.3 21 Sudeste 41 Sudeste 0 -- -- 35
2019-06-08 13:00:00 25.3 22 Sudeste 42 Sudeste 0 -- -- 37
2019-06-08 12:00:00 23.5 24 Sudeste 41 Sur 0 -- -- 42
2019-06-08 11:00:00 22.1 21 Sudeste 38 Sudeste 0 -- -- 43
2019-06-08 10:00:00 19.8 22 Sudeste 35 Este 0 -- -- 47
2019-06-08 09:00:00 16.2 14 Este 24 Este 0 -- -- 44
2019-06-08 08:00:00 11.4 8 Nordeste 11 Nordeste 0 -- -- 48
2019-06-08 07:00:00 7.9 7 Nordeste 14 Nordeste 0 -- -- 52
2019-06-08 06:00:00 8.1 10 Nordeste 13 Nordeste 0 -- -- 51
2019-06-08 05:00:00 8.4 9 Nordeste 13 Nordeste 0 -- -- 49
2019-06-08 04:00:00 10.5 9 Nordeste 13 Nordeste 0 -- -- 43
2019-06-08 03:00:00 12.2 13 Nordeste 17 Nordeste 0 -- -- 40
2019-06-08 02:00:00 11.8 9 Nordeste 17 Norte 0 -- -- 39
2019-06-08 01:00:00 10.8 5 Nordeste 9 Nordeste 0 -- -- 40
2019-06-08 00:00:00 12.6 3 Nordeste 4 Nordeste 0 -- -- 36
2019-06-07 23:00:00 14.2 3 Nordeste 6 Nordeste 0 -- -- 31
2019-06-07 22:00:00 16.7 4 Norte 9 Norte 0 -- -- 28
2019-06-07 21:00:00 19.4 6 Norte 16 Noroeste 0 -- -- 25
2019-06-07 20:00:00 21 8 Noroeste 15 Noroeste 0 -- -- 22
2019-06-07 19:00:00 21.6 9 Noroeste 24 Sudoeste 0 -- -- 20
2019-06-07 18:00:00 21.6 7 Oeste 21 Sudoeste 0 -- -- 22
2019-06-07 17:00:00 21 4 Norte 22 Noroeste 0 -- -- 24
2019-06-07 16:00:00 20.4 10 Noroeste 23 Oeste 0 -- -- 25
2019-06-07 15:00:00 19 13 Oeste 27 Sudoeste 0 -- -- 29
2019-06-07 14:00:00 17.6 9 Noroeste 19 Noroeste 0 -- -- 36
2019-06-07 13:00:00 16.6 9 Oeste 22 Oeste 0 -- -- 40
2019-06-07 12:00:00 15 11 Oeste 26 Oeste 0 -- -- 46
2019-06-07 11:00:00 13.8 9 Noroeste 24 Oeste 0 -- -- 53
2019-06-07 10:00:00 12.2 12 Oeste 34 Oeste 0 -- -- 63
2019-06-07 09:00:00 10.9 18 Oeste 34 Oeste 0 -- -- 70
2019-06-07 08:00:00 9.9 15 Noroeste 33 Oeste 0 -- -- 82
2019-06-07 07:00:00 10.2 14 Oeste 35 Oeste 0 -- -- 84
2019-06-07 06:00:00 11.3 16 Oeste 36 Oeste 0 -- -- 84
2019-06-07 05:00:00 12.4 15 Oeste 35 Oeste 0 -- -- 82
2019-06-07 04:00:00 15.8 20 Sudoeste 39 Oeste 0 -- -- 63
2019-06-07 03:00:00 16.5 19 Oeste 38 Oeste 0 -- -- 58
2019-06-07 02:00:00 16 17 Oeste 30 Sudoeste 0 -- -- 49
2019-06-07 01:00:00 14.1 9 Sudoeste 20 Oeste 0 -- -- 43
2019-06-07 00:00:00 17.1 14 Oeste 26 Sudoeste 0 -- -- 36
2019-06-06 23:00:00 18.1 16 Oeste 27 Oeste 0 -- -- 30
2019-06-06 22:00:00 19.9 12 Oeste 27 Oeste 0 -- -- 27
2019-06-06 21:00:00 22 17 Sudoeste 38 Sudoeste 0 -- -- 27
2019-06-06 20:00:00 23.1 28 Sudoeste 45 Sudoeste 0 -- -- 25
2019-06-06 19:00:00 24 28 Sudoeste 48 Sudoeste 0 -- -- 25
2019-06-06 18:00:00 24.3 23 Sudoeste 50 Sudoeste 0 -- -- 23
2019-06-06 17:00:00 24.2 30 Sudoeste 50 Sudoeste 0 -- -- 22
2019-06-06 16:00:00 24 26 Sudoeste 46 Sudoeste 0 -- -- 21
2019-06-06 15:00:00 22.9 24 Sudoeste 45 Sur 0 -- -- 21
2019-06-06 14:00:00 21.7 24 Sudoeste 41 Sudoeste 0 -- -- 21
2019-06-06 13:00:00 20.5 18 Sudoeste 39 Sur 0 -- -- 29
2019-06-06 12:00:00 18.7 20 Sudoeste 40 Sur 0 -- -- 34
2019-06-06 11:00:00 17.9 12 Sur 26 Sur 0 -- -- 36
2019-06-06 10:00:00 15.9 9 Sur 16 Sudoeste 0 -- -- 40
2019-06-06 09:00:00 13.6 6 Sudoeste 10 Sudoeste 0 -- -- 46
2019-06-06 08:00:00 9.6 3 Sudoeste 5 Sudoeste 0 -- -- 57
2019-06-06 07:00:00 8 2 Oeste 5 Oeste 0 -- -- 59
2019-06-06 06:00:00 8.9 3 Noroeste 9 Oeste 0 -- -- 56
2019-06-06 05:00:00 10.8 7 Oeste 18 Oeste 0 -- -- 51
2019-06-06 04:00:00 10.8 8 Oeste 17 Noroeste 0 -- -- 49
2019-06-06 03:00:00 10.5 4 Oeste 10 Oeste 0 -- -- 47
2019-06-06 02:00:00 11.3 3 Sudoeste 14 Oeste 0 -- -- 42
2019-06-06 01:00:00 13.8 8 Oeste 14 Oeste 0 -- -- 38
2019-06-06 00:00:00 14.3 7 Oeste 15 Oeste 0 -- -- 38
2019-06-05 23:00:00 14.9 9 Oeste 15 Oeste 0 -- -- 37
2019-06-05 22:00:00 16.7 8 Oeste 18 Oeste 0 -- -- 34
2019-06-05 21:00:00 18.7 12 Oeste 25 Oeste 0 -- -- 31
2019-06-05 20:00:00 20.2 14 Oeste 31 Sudoeste 0 -- -- 28
2019-06-05 19:00:00 21.4 12 Oeste 31 Oeste 0 -- -- 26
2019-06-05 18:00:00 21.7 13 Oeste 44 Oeste 0 -- -- 25
2019-06-05 17:00:00 20.9 12 Noroeste 34 Oeste 0 -- -- 27
2019-06-05 16:00:00 20.8 15 Noroeste 38 Noroeste 0 -- -- 28
2019-06-05 15:00:00 18.9 17 Noroeste 40 Noroeste 0 -- -- 31
2019-06-05 14:00:00 18.3 17 Noroeste 35 Oeste 0 -- -- 34
2019-06-05 13:00:00 18.2 15 Oeste 35 Oeste 0 -- -- 36
2019-06-05 12:00:00 16.5 17 Oeste 34 Sudoeste 0 -- -- 42
2019-06-05 11:00:00 15.4 14 Noroeste 37 Noroeste 0 -- -- 50
2019-06-05 10:00:00 13.8 19 Oeste 34 Noroeste 0 -- -- 54
2019-06-05 09:00:00 12.8 24 Oeste 38 Oeste 0 -- -- 59
2019-06-05 08:00:00 11.4 18 Oeste 31 Oeste 0 -- -- 64
2019-06-05 07:00:00 10.8 14 Oeste 33 Oeste 0 -- -- 65
2019-06-05 06:00:00 12.6 15 Oeste 37 Noroeste 0 -- -- 60
2019-06-05 05:00:00 14.4 16 Oeste 32 Oeste 0 -- -- 58
2019-06-05 04:00:00 14.9 13 Oeste 26 Oeste 0 -- -- 63
2019-06-05 03:00:00 15.8 6 Oeste 26 Oeste 0 -- -- 62
2019-06-05 02:00:00 17.1 14 Oeste 36 Oeste 0 -- -- 61
2019-06-05 01:00:00 18.5 17 Oeste 32 Oeste 0 -- -- 59
2019-06-05 00:00:00 19.5 13 Oeste 32 Oeste 0 -- -- 50
2019-06-04 23:00:00 20.3 11 Oeste 21 Oeste 0 -- -- 46
2019-06-04 22:00:00 21.6 8 Noroeste 27 Oeste 0 -- -- 44
2019-06-04 21:00:00 23.3 17 Oeste 38 Oeste 0 -- -- 40
2019-06-04 20:00:00 26.1 19 Oeste 43 Oeste 0 -- -- 29
2019-06-04 19:00:00 27.8 26 Oeste 45 Sudoeste 0 -- -- 27
2019-06-04 18:00:00 28.7 24 Oeste 54 Sudoeste 0 -- -- 28
2019-06-04 17:00:00 28.8 24 Sudoeste 47 Sudoeste 0 -- -- 28
2019-06-04 16:00:00 28.5 23 Sudoeste 49 Sudoeste 0 -- -- 29
2019-06-04 15:00:00 27.6 23 Oeste 46 Sudoeste 0 -- -- 34
2019-06-04 14:00:00 27.8 23 Sudoeste 43 Sudoeste 0 -- -- 31
2019-06-04 13:00:00 27 13 Sudoeste 59 Sur 0 -- -- 37
2019-06-04 12:00:00 25.1 9 Sudoeste 25 Oeste 0 -- -- 42
2019-06-04 11:00:00 23.7 10 Oeste 21 Oeste 0 -- -- 47
2019-06-04 10:00:00 22.3 6 Oeste 15 Sudoeste 0 -- -- 53
2019-06-04 09:00:00 20.4 5 Sudoeste 9 Sudoeste 0 -- -- 56
2019-06-04 08:00:00 16.8 4 Sur 9 Sudoeste 0 -- -- 59
2019-06-04 07:00:00 15.3 3 Sudoeste 9 Sur 0 -- -- 58
2019-06-04 06:00:00 16.7 6 Sudoeste 14 Oeste 0 -- -- 57
2019-06-04 05:00:00 18.9 4 Oeste 14 Oeste 0 -- -- 53
2019-06-04 04:00:00 20 9 Oeste 18 Oeste 0 -- -- 47
2019-06-04 03:00:00 19.8 11 Oeste 18 Oeste 0 -- -- 37
2019-06-04 02:00:00 21.5 9 Oeste 17 Oeste 0 -- -- 27
2019-06-04 01:00:00 21.3 8 Oeste 19 Oeste 0 -- -- 26
2019-06-04 00:00:00 23.1 9 Oeste 15 Oeste 0 -- -- 23
2019-06-03 23:00:00 23.5 6 Oeste 15 Oeste 0 -- -- 22
2019-06-03 22:00:00 26.1 7 Oeste 25 Oeste 0 -- -- 19
2019-06-03 21:00:00 29.2 18 Oeste 31 Oeste 0 -- -- 17
2019-06-03 20:00:00 31 17 Oeste 40 Sudoeste 0 -- -- 17
2019-06-03 19:00:00 32.3 21 Oeste 41 Sudoeste 0 -- -- 16
2019-06-03 18:00:00 32.7 18 Sudoeste 37 Sudoeste 0 -- -- 16
2019-06-03 17:00:00 32.9 18 Oeste 45 Sudoeste 0 -- -- 17
2019-06-03 16:00:00 32.4 17 Oeste 42 Oeste 0 -- -- 18
2019-06-03 15:00:00 32.6 21 Sudoeste 35 Sudoeste 0 -- -- 17
2019-06-03 14:00:00 31.9 15 Sudoeste 31 Oeste 0 -- -- 17
2019-06-03 13:00:00 30.3 13 Oeste 32 Sudoeste 0 -- -- 19
2019-06-03 12:00:00 29.2 11 Oeste 20 Oeste 0 -- -- 18
2019-06-03 11:00:00 26.5 7 Oeste 14 Sudoeste 0 -- -- 27
2019-06-03 10:00:00 23.4 6 Sur 14 Sudeste 0 -- -- 33
2019-06-03 09:00:00 20.1 9 Sudeste 16 Sudeste 0 -- -- 39
2019-06-03 08:00:00 16.4 9 Sudeste 15 Sudeste 0 -- -- 45
2019-06-03 07:00:00 16.6 11 Sudeste 17 Sudeste 0 -- -- 44
2019-06-03 06:00:00 17.4 9 Sudeste 18 Sudeste 0 -- -- 41
2019-06-03 05:00:00 18.5 8 Sudeste 14 Sudeste 0 -- -- 38
2019-06-03 04:00:00 19 5 Sur 10 Sudeste 0 -- -- 37
2019-06-03 03:00:00 20.7 7 Sudoeste 14 Sur 0 -- -- 34
2019-06-03 02:00:00 21.9 2 Norte 10 Oeste 0 -- -- 32
2019-06-03 01:00:00 24.1 5 Oeste 10 Oeste 0 -- -- 30
2019-06-03 00:00:00 25.3 6 Noroeste 9 Oeste 0 -- -- 28
2019-06-02 23:00:00 25.9 5 Sudoeste 16 Oeste 0 -- -- 25
2019-06-02 22:00:00 27.4 5 Sur 7 Noroeste 0 -- -- 23
2019-06-02 21:00:00 30.3 4 Noroeste 14 Oeste 0 -- -- 20
2019-06-02 20:00:00 32 10 Oeste 18 Oeste 0 -- -- 19
2019-06-02 19:00:00 33.2 4 Nordeste 19 Oeste 0 -- -- 18
2019-06-02 18:00:00 33.9 9 Sudeste 27 Nordeste 0 -- -- 17
2019-06-02 17:00:00 33.5 10 Sudoeste 28 Sudoeste 0 -- -- 17
2019-06-02 16:00:00 33.1 8 Oeste 24 Sudoeste 0 -- -- 18
2019-06-02 15:00:00 32.5 6 Noroeste 22 Oeste 0 -- -- 19
2019-06-02 14:00:00 31.5 10 Oeste 35 Oeste 0 -- -- 20
2019-06-02 13:00:00 30.2 7 Sur 16 Sur 0 -- -- 23
2019-06-02 12:00:00 28.2 7 Sur 17 Sur 0 -- -- 25
2019-06-02 11:00:00 25 10 Sur 22 Sudeste 0 -- -- 28
2019-06-02 10:00:00 21.9 13 Sudeste 23 Sur 0 -- -- 33
2019-06-02 09:00:00 18.9 13 Sudeste 26 Sudeste 0 -- -- 38
2019-06-02 08:00:00 15.5 14 Sudeste 27 Sudeste 0 -- -- 45
2019-06-02 07:00:00 14.4 10 Sudeste 21 Sudeste 0 -- -- 48
2019-06-02 06:00:00 15 11 Sudeste 22 Sudeste 0 -- -- 46
2019-06-02 05:00:00 15.9 12 Sudeste 24 Sudeste 0 -- -- 45
2019-06-02 04:00:00 16.8 12 Sudeste 27 Sudeste 0 -- -- 45
2019-06-02 03:00:00 18 16 Sudeste 26 Sudeste 0 -- -- 42
2019-06-02 02:00:00 19.5 13 Sudeste 24 Sudeste 0 -- -- 36
2019-06-02 01:00:00 20.1 10 Sudeste 15 Sudeste 0 -- -- 34
2019-06-02 00:00:00 20.8 10 Sur 14 Sur 0 -- -- 32
2019-06-01 23:00:00 22.5 7 Sur 16 Sur 0 -- -- 30
2019-06-01 22:00:00 25.3 6 Sur 10 Sudoeste 0 -- -- 25
2019-06-01 21:00:00 29 6 Sur 13 Sudeste 0 -- -- 22
2019-06-01 20:00:00 31 3 Nordeste 13 Este 0 -- -- 19
2019-06-01 19:00:00 32.1 6 Este 23 Este 0 -- -- 19
2019-06-01 18:00:00 32.1 9 Este 20 Este 0 -- -- 19
2019-06-01 17:00:00 31.4 8 Norte 30 Este 0 -- -- 20
2019-06-01 16:00:00 31.5 12 Este 19 Nordeste 0 -- -- 21
2019-06-01 15:00:00 30.9 8 Sur 19 Sudeste 0 -- -- 23
2019-06-01 14:00:00 30 12 Sudeste 25 Sudeste 0 -- -- 24
2019-06-01 13:00:00 28.9 11 Sur 23 Sur 0 -- -- 27
2019-06-01 12:00:00 27.5 12 Sur 27 Sur 0 -- -- 30
2019-06-01 11:00:00 24.7 14 Sudeste 26 Sudeste 0 -- -- 37
2019-06-01 10:00:00 21.7 12 Sudeste 25 Sudeste 0 -- -- 44
2019-06-01 09:00:00 18.5 15 Sudeste 27 Sur 0 -- -- 51
2019-06-01 08:00:00 15.2 12 Sudeste 24 Sudeste 0 -- -- 58
2019-06-01 07:00:00 14.2 12 Sudeste 23 Sudeste 0 -- -- 61
2019-06-01 06:00:00 14.7 15 Sudeste 30 Sudeste 0 -- -- 59
2019-06-01 05:00:00 15.3 20 Sudeste 29 Sudeste 0 -- -- 57
2019-06-01 04:00:00 16 18 Sudeste 32 Este 0 -- -- 54
2019-06-01 03:00:00 16.9 21 Sudeste 32 Sudeste 0 -- -- 53
2019-06-01 02:00:00 18.1 16 Sudeste 27 Sudeste 0 -- -- 43
2019-06-01 01:00:00 19.3 10 Sudeste 18 Sur 0 -- -- 34
2019-06-01 00:00:00 19.4 8 Sur 16 Sur 0 -- -- 33
2019-05-31 23:00:00 20.8 11 Sur 15 Sur 0 -- -- 31
2019-05-31 22:00:00 23 9 Sur 18 Sur 0 -- -- 27
2019-05-31 21:00:00 27.2 12 Sur 22 Sudeste 0 -- -- 23
2019-05-31 20:00:00 29.5 11 Sur 21 Sudeste 0 -- -- 22
2019-05-31 19:00:00 30.7 10 Sudeste 18 Nordeste 0 -- -- 18
2019-05-31 18:00:00 31 8 Nordeste 21 Este 0 -- -- 19
2019-05-31 17:00:00 30.8 6 Norte 22 Este 0 -- -- 19
2019-05-31 16:00:00 30 6 Noroeste 27 Este 0 -- -- 22
2019-05-31 15:00:00 29.3 7 Noroeste 27 Este 0 -- -- 23
2019-05-31 14:00:00 28.8 13 Nordeste 27 Nordeste 0 -- -- 26
2019-05-31 13:00:00 27.4 7 Sur 24 Sudeste 0 -- -- 29
2019-05-31 12:00:00 26.4 8 Sudeste 24 Sudeste 0 -- -- 31
2019-05-31 11:00:00 24.3 15 Sudeste 27 Sudeste 0 -- -- 36
2019-05-31 10:00:00 21.9 13 Sudeste 23 Este 0 -- -- 41
2019-05-31 09:00:00 18.2 14 Sudeste 24 Sudeste 0 -- -- 50
2019-05-31 08:00:00 13.5 13 Este 19 Este 0 -- -- 63
2019-05-31 07:00:00 11.8 12 Este 16 Este 0 -- -- 66
2019-05-31 06:00:00 12.4 12 Este 17 Este 0 -- -- 62
2019-05-31 05:00:00 13.2 13 Este 19 Este 0 -- -- 60
2019-05-31 04:00:00 14.4 12 Este 21 Sudeste 0 -- -- 53
2019-05-31 03:00:00 15.7 13 Sudeste 23 Sudeste 0 -- -- 47
2019-05-31 02:00:00 16.4 15 Este 22 Sudeste 0 -- -- 43
2019-05-31 01:00:00 17.7 9 Sudeste 15 Sudeste 0 -- -- 39
2019-05-31 00:00:00 19.4 9 Sudeste 15 Este 0 -- -- 36
2019-05-30 23:00:00 19.9 8 Sudeste 15 Sur 0 -- -- 34
2019-05-30 22:00:00 23.1 3 Sur 8 Sudeste 0 -- -- 27
2019-05-30 21:00:00 26.8 5 Sudeste 16 Este 0 -- -- 23
2019-05-30 20:00:00 28.3 12 Este 21 Este 0 -- -- 21
2019-05-30 19:00:00 29.1 15 Nordeste 27 Nordeste 0 -- -- 20
2019-05-30 18:00:00 28.9 14 Nordeste 28 Nordeste 0 -- -- 21
2019-05-30 17:00:00 29 9 Este 25 Nordeste 0 -- -- 23
2019-05-30 16:00:00 27.9 10 Nordeste 24 Este 0 -- -- 24
2019-05-30 15:00:00 26.7 14 Este 28 Este 0 -- -- 26
2019-05-30 14:00:00 25.6 13 Este 24 Este 0 -- -- 29
2019-05-30 13:00:00 23.5 10 Este 21 Este 0 -- -- 32
2019-05-30 12:00:00 21.7 9 Este 22 Sudeste 0 -- -- 36
2019-05-30 11:00:00 19.9 11 Este 23 Este 0 -- -- 39
2019-05-30 10:00:00 18.4 12 Este 17 Este 0 -- -- 42
2019-05-30 09:00:00 16 12 Nordeste 17 Este 0 -- -- 50
2019-05-30 08:00:00 12.5 9 Nordeste 14 Este 0 -- -- 61
2019-05-30 07:00:00 10.3 11 Este 16 Nordeste 0 -- -- 67
2019-05-30 06:00:00 11 12 Nordeste 21 Este 0 -- -- 64
2019-05-30 05:00:00 12.3 13 Este 28 Nordeste 0 -- -- 59
2019-05-30 04:00:00 12.9 19 Nordeste 28 Nordeste 0 -- -- 56
2019-05-30 03:00:00 14.3 18 Nordeste 31 Nordeste 0 -- -- 51
2019-05-30 02:00:00 15.4 15 Nordeste 23 Nordeste 0 -- -- 49
2019-05-30 01:00:00 16.5 14 Nordeste 28 Nordeste 0 -- -- 45
2019-05-30 00:00:00 17.5 17 Nordeste 24 Nordeste 0 -- -- 42
2019-05-29 23:00:00 18.7 13 Nordeste 18 Nordeste 0 -- -- 42
2019-05-29 22:00:00 20.4 12 Nordeste 18 Nordeste 0 -- -- 37
2019-05-29 21:00:00 23.6 11 Nordeste 22 Norte 0 -- -- 31
2019-05-29 20:00:00 25.1 11 Norte 27 Norte 0 -- -- 30
2019-05-29 19:00:00 25.9 14 Norte 30 Nordeste 0 -- -- 28
2019-05-29 18:00:00 25.7 21 Nordeste 39 Nordeste 0 -- -- 27
2019-05-29 17:00:00 25.7 21 Nordeste 38 Nordeste 0 -- -- 28
2019-05-29 16:00:00 24.8 18 Nordeste 32 Nordeste 0 -- -- 30
2019-05-29 15:00:00 23.7 20 Norte 37 Norte 0 -- -- 32
2019-05-29 14:00:00 22.3 18 Norte 34 Norte 0 -- -- 33
2019-05-29 13:00:00 21.2 17 Nordeste 31 Norte 0 -- -- 35
2019-05-29 12:00:00 19.6 21 Nordeste 33 Nordeste 0 -- -- 36
2019-05-29 11:00:00 17.3 21 Nordeste 35 Este 0 -- -- 40
2019-05-29 10:00:00 15 26 Nordeste 47 Nordeste 0 -- -- 46
2019-05-29 09:00:00 12.5 29 Nordeste 42 Este 0 -- -- 52
2019-05-29 08:00:00 10.5 25 Nordeste 38 Nordeste 0 -- -- 58
2019-05-29 07:00:00 9.3 16 Nordeste 33 Nordeste 0 -- -- 62
2019-05-29 06:00:00 9.5 17 Este 25 Este 0 -- -- 62
2019-05-29 05:00:00 10.1 14 Nordeste 31 Nordeste 0 -- -- 58
2019-05-29 04:00:00 11.1 24 Nordeste 35 Nordeste 0 -- -- 54
2019-05-29 03:00:00 12.1 22 Nordeste 39 Nordeste 0 -- -- 52
2019-05-29 02:00:00 13.2 24 Nordeste 32 Nordeste 0 -- -- 50
2019-05-29 01:00:00 14.5 22 Nordeste 42 Nordeste 0 -- -- 46
2019-05-29 00:00:00 16.5 26 Nordeste 42 Nordeste 0 -- -- 43
2019-05-28 23:00:00 17.8 26 Nordeste 38 Nordeste 0 -- -- 31
2019-05-28 22:00:00 19.3 25 Norte 39 Norte 0 -- -- 26
2019-05-28 21:00:00 21.2 26 Norte 41 Norte 0 -- -- 29
2019-05-28 20:00:00 24.2 26 Norte 37 Norte 0 -- -- 24
2019-05-28 19:00:00 25.9 15 Norte 28 Norte 0 -- -- 21
2019-05-28 18:00:00 26 14 Norte 31 Norte 0 -- -- 22
2019-05-28 17:00:00 26.2 17 Norte 34 Norte 0 -- -- 22
2019-05-28 16:00:00 25.7 17 Norte 28 Norte 0 -- -- 23
2019-05-28 15:00:00 25 12 Norte 27 Norte 0 -- -- 25
2019-05-28 14:00:00 23.7 13 Norte 25 Norte 0 -- -- 30
2019-05-28 13:00:00 22.8 11 Norte 21 Norte 0 -- -- 33
2019-05-28 12:00:00 21.7 11 Norte 24 Nordeste 0 -- -- 35
2019-05-28 11:00:00 20.3 15 Nordeste 23 Norte 0 -- -- 39
2019-05-28 10:00:00 18.1 13 Nordeste 26 Nordeste 0 -- -- 49
2019-05-28 09:00:00 15.5 16 Nordeste 23 Nordeste 0 -- -- 58
2019-05-28 08:00:00 12.6 10 Nordeste 14 Nordeste 0 -- -- 70
2019-05-28 07:00:00 12.3 8 Nordeste 15 Nordeste 0 -- -- 71
2019-05-28 06:00:00 12.5 9 Nordeste 12 Norte 0 -- -- 70
2019-05-28 05:00:00 13.2 8 Nordeste 15 Nordeste 0 -- -- 67
2019-05-28 04:00:00 14 10 Este 23 Este 0 -- -- 64
2019-05-28 03:00:00 15.4 17 Nordeste 25 Nordeste 0 -- -- 60
2019-05-28 02:00:00 16.9 18 Nordeste 26 Nordeste 0 -- -- 56
2019-05-28 01:00:00 18.1 17 Nordeste 24 Nordeste 0 -- -- 53
2019-05-28 00:00:00 19.7 19 Nordeste 32 Nordeste 0 -- -- 49
2019-05-27 23:00:00 21.2 18 Nordeste 27 Nordeste 0 -- -- 39
2019-05-27 22:00:00 22.8 19 Norte 30 Nordeste 0 -- -- 35
2019-05-27 21:00:00 24.5 16 Norte 26 Norte 0 -- -- 33
2019-05-27 20:00:00 27 12 Norte 26 Oeste 0 -- -- 26
2019-05-27 19:00:00 27.9 14 Noroeste 37 Norte 0 -- -- 24
2019-05-27 18:00:00 28.1 16 Noroeste 32 Oeste 0 -- -- 26
2019-05-27 17:00:00 28.7 12 Noroeste 32 Oeste 0 -- -- 26
2019-05-27 16:00:00 28 11 Noroeste 24 Noroeste 0 -- -- 30
2019-05-27 15:00:00 27.2 8 Norte 39 Oeste 0 -- -- 32
2019-05-27 14:00:00 25.8 9 Noroeste 25 Norte 0 -- -- 34
2019-05-27 13:00:00 25 7 Norte 21 Noroeste 0 -- -- 35
2019-05-27 12:00:00 23.8 7 Oeste 14 Norte 0 -- -- 37
2019-05-27 11:00:00 22.1 3 Oeste 16 Este 0 -- -- 40
2019-05-27 10:00:00 20.1 8 Nordeste 13 Este 0 -- -- 44
2019-05-27 09:00:00 16.6 3 Nordeste 9 Nordeste 0 -- -- 53
2019-05-27 08:00:00 12.3 4 Este 6 Este 0 -- -- 63
2019-05-27 07:00:00 11.4 4 Nordeste 5 Norte 0 -- -- 61
2019-05-27 06:00:00 10.6 3 Este 5 Este 0 -- -- 66
2019-05-27 05:00:00 12.1 5 Sudeste 11 Sudeste 0 -- -- 59
2019-05-27 04:00:00 12.1 5 Nordeste 12 Nordeste 0 -- -- 59
2019-05-27 03:00:00 12.8 10 Nordeste 13 Nordeste 0 -- -- 57
2019-05-27 02:00:00 13.8 6 Este 13 Nordeste 0 -- -- 51
2019-05-27 01:00:00 16.4 9 Nordeste 12 Nordeste 0 -- -- 43
2019-05-27 00:00:00 17.4 8 Este 15 Nordeste 0 -- -- 39
2019-05-26 23:00:00 20.4 13 Nordeste 24 Nordeste 0 -- -- 33
2019-05-26 22:00:00 21.3 11 Nordeste 17 Norte 0 -- -- 36
2019-05-26 21:00:00 23.9 9 Norte 17 Norte 0 -- -- 32
2019-05-26 20:00:00 25.6 5 Norte 30 Norte 0 -- -- 29
2019-05-26 19:00:00 25.8 14 Nordeste 33 Norte 0 -- -- 27
2019-05-26 18:00:00 25.9 14 Norte 33 Norte 0 -- -- 27
2019-05-26 17:00:00 25.3 12 Norte 37 Norte 0 -- -- 26
2019-05-26 16:00:00 24.3 17 Norte 34 Norte 0 -- -- 27
2019-05-26 15:00:00 23.4 12 Norte 31 Norte 0 -- -- 28
2019-05-26 14:00:00 21.7 13 Norte 32 Norte 0 -- -- 31
2019-05-26 13:00:00 20.1 15 Norte 24 Norte 0 -- -- 37
2019-05-26 12:00:00 18.7 10 Norte 27 Nordeste 0 -- -- 39
2019-05-26 11:00:00 17 13 Norte 32 Norte 0 -- -- 44
2019-05-26 10:00:00 15 15 Nordeste 32 Nordeste 0 -- -- 51
2019-05-26 09:00:00 12.8 27 Nordeste 37 Nordeste 0 -- -- 57
2019-05-26 08:00:00 10.6 17 Nordeste 26 Nordeste 0 -- -- 67
2019-05-26 07:00:00 9.7 18 Nordeste 27 Nordeste 0 -- -- 70
2019-05-26 06:00:00 10.1 15 Nordeste 22 Nordeste 0 -- -- 71
2019-05-26 05:00:00 10.7 17 Nordeste 23 Nordeste 0 -- -- 70
2019-05-26 04:00:00 11.4 13 Nordeste 21 Nordeste 0 -- -- 68
2019-05-26 03:00:00 12.1 13 Nordeste 20 Nordeste 0 -- -- 65
2019-05-26 02:00:00 13.1 13 Nordeste 24 Nordeste 0 -- -- 61
2019-05-26 01:00:00 15.4 18 Nordeste 27 Nordeste 0 -- -- 53
2019-05-26 00:00:00 15.8 17 Nordeste 22 Nordeste 0 -- -- 50
2019-05-25 23:00:00 17.1 14 Nordeste 19 Nordeste 0 -- -- 45
2019-05-25 22:00:00 18.2 9 Nordeste 17 Nordeste 0 -- -- 42
2019-05-25 21:00:00 20.9 13 Nordeste 27 Nordeste 0 -- -- 36
2019-05-25 20:00:00 22.4 16 Nordeste 30 Nordeste 0 -- -- 32
2019-05-25 19:00:00 23.7 19 Nordeste 30 Nordeste 0 -- -- 32
2019-05-25 18:00:00 23.9 15 Norte 35 Norte 0 -- -- 32
2019-05-25 17:00:00 23.6 18 Nordeste 39 Nordeste 0 -- -- 34
2019-05-25 16:00:00 22.9 18 Nordeste 38 Nordeste 0 -- -- 34
2019-05-25 15:00:00 21.5 20 Nordeste 40 Nordeste 0 -- -- 38
2019-05-25 14:00:00 20.5 22 Norte 44 Nordeste 0 -- -- 40
2019-05-25 13:00:00 19.6 24 Nordeste 38 Nordeste 0 -- -- 41
2019-05-25 12:00:00 18.4 27 Nordeste 38 Nordeste 0 -- -- 44
2019-05-25 11:00:00 16.8 27 Nordeste 48 Nordeste 0 -- -- 48
2019-05-25 10:00:00 15.4 29 Nordeste 44 Nordeste 0 -- -- 53
2019-05-25 09:00:00 13.2 26 Nordeste 35 Nordeste 0 -- -- 62
2019-05-25 08:00:00 11.5 18 Nordeste 26 Nordeste 0 -- -- 68
2019-05-25 07:00:00 10.1 12 Nordeste 24 Nordeste 0 -- -- 72
2019-05-25 06:00:00 10.1 14 Nordeste 23 Nordeste 0 -- -- 73
2019-05-25 05:00:00 10.4 12 Nordeste 35 Nordeste 0 -- -- 71
2019-05-25 04:00:00 11.2 26 Nordeste 40 Nordeste 0 -- -- 68
2019-05-25 03:00:00 11.3 24 Nordeste 35 Nordeste 0 -- -- 67
2019-05-25 02:00:00 12 19 Nordeste 28 Nordeste 0 -- -- 64
2019-05-25 01:00:00 13.2 16 Nordeste 27 Nordeste 0 -- -- 60
2019-05-25 00:00:00 14.7 15 Nordeste 28 Nordeste 0 -- -- 54
2019-05-24 23:00:00 16.4 15 Nordeste 30 Nordeste 0 -- -- 49
2019-05-24 22:00:00 17 16 Nordeste 33 Nordeste 0 -- -- 50
2019-05-24 21:00:00 19.2 22 Este 38 Este 0 -- -- 44
2019-05-24 20:00:00 20.9 22 Este 36 Nordeste 0 -- -- 40
2019-05-24 19:00:00 22.8 19 Nordeste 36 Nordeste 0 -- -- 34
2019-05-24 18:00:00 23.4 16 Nordeste 36 Norte 0 -- -- 33
2019-05-24 17:00:00 23.2 24 Nordeste 41 Nordeste 0 -- -- 37
2019-05-24 16:00:00 24.1 23 Nordeste 41 Nordeste 0 -- -- 35
2019-05-24 15:00:00 23.4 22 Nordeste 40 Nordeste 0 -- -- 40
2019-05-24 14:00:00 22.6 21 Norte 38 Nordeste 0 -- -- 41
2019-05-24 13:00:00 22.5 24 Nordeste 37 Norte 0 -- -- 44
2019-05-24 12:00:00 19.4 25 Norte 37 Norte 0 -- -- 55
2019-05-24 11:00:00 19.5 19 Norte 30 Norte 0 -- -- 58
2019-05-24 10:00:00 19 18 Norte 28 Norte 0 -- -- 59
2019-05-24 09:00:00 17.7 15 Nordeste 24 Norte 0 -- -- 62
2019-05-24 08:00:00 15.5 14 Norte 21 Norte 0 -- -- 69
2019-05-24 07:00:00 14.9 0 Calma 14 Noroeste 0 -- -- 60
2019-05-24 06:00:00 15.3 5 Noroeste 14 Noroeste 0 -- -- 58
2019-05-24 05:00:00 15.7 6 Noroeste 16 Noroeste 0 -- -- 56
2019-05-24 04:00:00 14.7 4 Oeste 14 Norte 0 -- -- 51
2019-05-24 03:00:00 15.1 9 Norte 10 Norte 0 -- -- 47
2019-05-24 02:00:00 17 5 Noroeste 12 Noroeste 0 -- -- 42
2019-05-24 01:00:00 17.3 5 Noroeste 18 Oeste 0 -- -- 41
2019-05-24 00:00:00 19.5 9 Oeste 18 Oeste 0 -- -- 36
2019-05-23 23:00:00 20.3 10 Oeste 17 Oeste 0 -- -- 36
2019-05-23 22:00:00 22.2 7 Oeste 24 Oeste 0 -- -- 34
2019-05-23 21:00:00 25.4 13 Oeste 33 Oeste 0 -- -- 30
2019-05-23 20:00:00 26.5 10 Oeste 29 Oeste 0 -- -- 31
2019-05-23 19:00:00 27 11 Oeste 31 Oeste 0 -- -- 30
2019-05-23 18:00:00 27.7 12 Oeste 30 Oeste 0 -- -- 29
2019-05-23 17:00:00 27.2 10 Oeste 24 Oeste 0 -- -- 31
2019-05-23 16:00:00 27.2 10 Oeste 33 Oeste 0 -- -- 31
2019-05-23 15:00:00 26.2 9 Oeste 31 Sudoeste 0 -- -- 34
2019-05-23 14:00:00 26.7 10 Sudoeste 23 Sudoeste 0 -- -- 33
2019-05-23 13:00:00 25.5 7 Oeste 17 Oeste 0 -- -- 35
2019-05-23 12:00:00 23.4 9 Sudoeste 14 Sudoeste 0 -- -- 38
2019-05-23 11:00:00 22.1 6 Sudoeste 15 Sudoeste 0 -- -- 40
2019-05-23 10:00:00 20.1 9 Sudoeste 16 Sur 0 -- -- 46
2019-05-23 09:00:00 16.8 9 Sur 16 Sudeste 0 -- -- 58
2019-05-23 08:00:00 13.3 8 Sudeste 15 Sur 0 -- -- 65
2019-05-23 07:00:00 12.3 12 Sur 19 Sur 0 -- -- 63
2019-05-23 06:00:00 12.3 5 Sudeste 9 Sudeste 0 -- -- 55
2019-05-23 05:00:00 12.6 4 Sudeste 8 Este 0 -- -- 56
2019-05-23 04:00:00 15.4 4 Sur 8 Sur 0 -- -- 48
2019-05-23 03:00:00 15.2 6 Sur 8 Sur 0 -- -- 49
2019-05-23 02:00:00 16 3 Sur 5 Oeste 0 -- -- 47
2019-05-23 01:00:00 18 3 Noroeste 7 Noroeste 0 -- -- 42
2019-05-23 00:00:00 18.3 3 Noroeste 6 Noroeste 0 -- -- 37
2019-05-22 23:00:00 19.4 4 Noroeste 8 Oeste 0 -- -- 35
2019-05-22 22:00:00 22 5 Oeste 12 Oeste 0 -- -- 32
2019-05-22 21:00:00 24.9 6 Noroeste 14 Noroeste 0 -- -- 27
2019-05-22 20:00:00 25.4 6 Noroeste 19 Norte 0 -- -- 27
2019-05-22 19:00:00 26.9 8 Noroeste 25 Oeste 0 -- -- 25
2019-05-22 18:00:00 27.6 7 Oeste 22 Oeste 0 -- -- 25
2019-05-22 17:00:00 27.3 12 Oeste 26 Sudoeste 0 -- -- 25
2019-05-22 16:00:00 26.5 10 Noroeste 20 Norte 0 -- -- 28
2019-05-22 15:00:00 26.4 9 Oeste 35 Sudoeste 0 -- -- 30
2019-05-22 14:00:00 25.5 9 Sudoeste 25 Oeste 0 -- -- 31
2019-05-22 13:00:00 24.8 5 Sur 18 Nordeste 0 -- -- 33
2019-05-22 12:00:00 22.3 2 Oeste 13 Sudeste 0 -- -- 46
2019-05-22 11:00:00 20.1 6 Nordeste 14 Este 0 -- -- 50
2019-05-22 10:00:00 18.1 6 Sudeste 19 Este 0 -- -- 56
2019-05-22 09:00:00 15.3 12 Este 17 Este 0 -- -- 67
2019-05-22 08:00:00 10.9 9 Este 13 Nordeste 0 -- -- 84
2019-05-22 07:00:00 8.8 10 Este 16 Este 0 -- -- 87
2019-05-22 06:00:00 9.2 12 Este 15 Nordeste 0 -- -- 87
2019-05-22 05:00:00 9.9 12 Este 14 Este 0 -- -- 85
2019-05-22 04:00:00 11.7 8 Este 18 Sudeste 0 -- -- 78
2019-05-22 03:00:00 13.3 13 Sudeste 24 Sudeste 0 -- -- 73
2019-05-22 02:00:00 14 13 Sudeste 24 Sudeste 0 -- -- 71
2019-05-22 01:00:00 15.3 10 Sudeste 23 Este 0 -- -- 63
2019-05-22 00:00:00 16.2 10 Este 15 Nordeste 0 -- -- 46
2019-05-21 23:00:00 17.4 11 Nordeste 17 Nordeste 0 -- -- 41
2019-05-21 22:00:00 19.8 13 Nordeste 18 Norte 0 -- -- 35
2019-05-21 21:00:00 21.5 3 Noroeste 15 Norte 0 -- -- 31
2019-05-21 20:00:00 22.8 11 Norte 23 Oeste 0 -- -- 29
2019-05-21 19:00:00 24.6 10 Norte 25 Norte 0 -- -- 28
2019-05-21 18:00:00 24.4 6 Noroeste 23 Noroeste 0 -- -- 27
2019-05-21 17:00:00 24.6 9 Noroeste 21 Sudoeste 0 -- -- 28
2019-05-21 16:00:00 23.4 6 Sudoeste 24 Oeste 0 -- -- 30
2019-05-21 15:00:00 23.4 6 Noroeste 21 Noroeste 0 -- -- 30
2019-05-21 14:00:00 22.7 8 Norte 18 Noroeste 0 -- -- 30
2019-05-21 13:00:00 22.2 7 Norte 15 Norte 0 -- -- 31
2019-05-21 12:00:00 20.6 4 Noroeste 9 Oeste 0 -- -- 33
2019-05-21 11:00:00 18.3 3 Norte 8 Noroeste 0 -- -- 39
2019-05-21 10:00:00 15.4 5 Nordeste 10 Nordeste 0 -- -- 42
2019-05-21 09:00:00 13.1 4 Nordeste 13 Norte 0 -- -- 49
2019-05-21 08:00:00 11.8 7 Norte 13 Norte 0 -- -- 53
2019-05-21 07:00:00 11 5 Noroeste 9 Noroeste 0 -- -- 56
2019-05-21 06:00:00 11.4 4 Noroeste 10 Sudoeste 0 -- -- 54
2019-05-21 05:00:00 11.8 5 Oeste 8 Oeste 0 -- -- 50
2019-05-21 04:00:00 11.2 2 Sur 6 Sur 0 -- -- 50
2019-05-21 03:00:00 12.8 3 Sur 8 Oeste 0 -- -- 46
2019-05-21 02:00:00 13.9 4 Oeste 10 Oeste 0 -- -- 44
2019-05-21 01:00:00 14.7 6 Oeste 12 Oeste 0 -- -- 43
2019-05-21 00:00:00 15.2 5 Oeste 11 Oeste 0 -- -- 40